sensor_id;sensor_type;location;lat;lon;timestamp;P1;durP1;ratioP1;P2;durP2;ratioP2
5678;SDS011;2862;52.560;13.566;2023-02-11T00:00:24;75.27;;;28.40;;
5678;SDS011;2862;52.560;13.566;2023-02-11T00:10:28;75.40;;;32.50;;
5678;SDS011;2862;52.560;13.566;2023-02-11T00:20:32;89.93;;;30.80;;
5678;SDS011;2862;52.560;13.566;2023-02-11T00:30:36;71.33;;;28.50;;
5678;SDS011;2862;52.560;13.566;2023-02-11T00:40:41;73.10;;;28.93;;
5678;SDS011;2862;52.560;13.566;2023-02-11T00:50:46;75.90;;;29.30;;
5678;SDS011;2862;52.560;13.566;2023-02-11T01:00:50;74.67;;;28.77;;
5678;SDS011;2862;52.560;13.566;2023-02-11T01:10:59;75.10;;;30.43;;
5678;SDS011;2862;52.560;13.566;2023-02-11T01:21:05;70.00;;;29.77;;
5678;SDS011;2862;52.560;13.566;2023-02-11T01:31:09;81.73;;;32.70;;
5678;SDS011;2862;52.560;13.566;2023-02-11T01:41:13;81.60;;;32.77;;
5678;SDS011;2862;52.560;13.566;2023-02-11T01:51:20;70.83;;;30.83;;
5678;SDS011;2862;52.560;13.566;2023-02-11T02:01:26;77.67;;;29.60;;
5678;SDS011;2862;52.560;13.566;2023-02-11T02:11:37;74.27;;;28.83;;
5678;SDS011;2862;52.560;13.566;2023-02-11T02:21:47;72.57;;;28.27;;
5678;SDS011;2862;52.560;13.566;2023-02-11T02:32:20;76.30;;;29.83;;
5678;SDS011;2862;52.560;13.566;2023-02-11T02:42:32;74.10;;;29.93;;
5678;SDS011;2862;52.560;13.566;2023-02-11T02:52:40;66.27;;;28.80;;
5678;SDS011;2862;52.560;13.566;2023-02-11T03:02:51;77.60;;;31.53;;
5678;SDS011;2862;52.560;13.566;2023-02-11T03:13:08;81.57;;;32.53;;
5678;SDS011;2862;52.560;13.566;2023-02-11T03:23:12;78.53;;;33.37;;
5678;SDS011;2862;52.560;13.566;2023-02-11T03:33:23;78.73;;;32.00;;
5678;SDS011;2862;52.560;13.566;2023-02-11T03:43:32;75.83;;;31.40;;
5678;SDS011;2862;52.560;13.566;2023-02-11T03:53:40;79.07;;;32.50;;
5678;SDS011;2862;52.560;13.566;2023-02-11T04:03:46;84.80;;;34.67;;
5678;SDS011;2862;52.560;13.566;2023-02-11T04:13:51;81.00;;;32.87;;
5678;SDS011;2862;52.560;13.566;2023-02-11T04:23:54;84.50;;;34.73;;
5678;SDS011;2862;52.560;13.566;2023-02-11T04:33:58;80.00;;;35.07;;
5678;SDS011;2862;52.560;13.566;2023-02-11T04:44:01;94.13;;;36.67;;
5678;SDS011;2862;52.560;13.566;2023-02-11T04:54:06;98.30;;;39.80;;
5678;SDS011;2862;52.560;13.566;2023-02-11T05:04:10;95.30;;;39.67;;
5678;SDS011;2862;52.560;13.566;2023-02-11T05:14:14;85.20;;;37.67;;
5678;SDS011;2862;52.560;13.566;2023-02-11T05:24:19;94.67;;;40.30;;
5678;SDS011;2862;52.560;13.566;2023-02-11T05:34:23;90.10;;;37.63;;
5678;SDS011;2862;52.560;13.566;2023-02-11T05:44:27;106.17;;;42.53;;
5678;SDS011;2862;52.560;13.566;2023-02-11T05:54:31;98.33;;;40.80;;
5678;SDS011;2862;52.560;13.566;2023-02-11T06:04:35;97.40;;;40.03;;
5678;SDS011;2862;52.560;13.566;2023-02-11T06:14:41;88.93;;;40.67;;
5678;SDS011;2862;52.560;13.566;2023-02-11T06:24:44;113.70;;;45.73;;
5678;SDS011;2862;52.560;13.566;2023-02-11T06:35:03;112.10;;;45.83;;
5678;SDS011;2862;52.560;13.566;2023-02-11T06:45:07;100.80;;;47.40;;
5678;SDS011;2862;52.560;13.566;2023-02-11T06:55:12;114.63;;;47.00;;
5678;SDS011;2862;52.560;13.566;2023-02-11T07:05:16;103.90;;;45.80;;
5678;SDS011;2862;52.560;13.566;2023-02-11T07:15:21;122.17;;;46.50;;
5678;SDS011;2862;52.560;13.566;2023-02-11T07:25:24;111.37;;;47.40;;
5678;SDS011;2862;52.560;13.566;2023-02-11T07:35:29;115.73;;;48.23;;
5678;SDS011;2862;52.560;13.566;2023-02-11T07:45:32;108.77;;;45.97;;
5678;SDS011;2862;52.560;13.566;2023-02-11T07:55:37;131.20;;;45.93;;
5678;SDS011;2862;52.560;13.566;2023-02-11T08:05:40;112.77;;;45.10;;
5678;SDS011;2862;52.560;13.566;2023-02-11T08:15:46;98.53;;;43.20;;
5678;SDS011;2862;52.560;13.566;2023-02-11T08:25:49;122.10;;;48.10;;
5678;SDS011;2862;52.560;13.566;2023-02-11T08:35:53;124.90;;;45.60;;
5678;SDS011;2862;52.560;13.566;2023-02-11T08:45:56;113.20;;;44.60;;
5678;SDS011;2862;52.560;13.566;2023-02-11T08:56:03;116.07;;;47.23;;
5678;SDS011;2862;52.560;13.566;2023-02-11T09:06:07;114.93;;;45.67;;
5678;SDS011;2862;52.560;13.566;2023-02-11T09:16:16;104.53;;;44.23;;
5678;SDS011;2862;52.560;13.566;2023-02-11T09:26:22;110.93;;;45.10;;
5678;SDS011;2862;52.560;13.566;2023-02-11T09:36:27;104.33;;;41.97;;
5678;SDS011;2862;52.560;13.566;2023-02-11T09:46:33;117.83;;;44.77;;
5678;SDS011;2862;52.560;13.566;2023-02-11T09:56:42;115.53;;;45.10;;
5678;SDS011;2862;52.560;13.566;2023-02-11T10:06:46;129.23;;;45.70;;
5678;SDS011;2862;52.560;13.566;2023-02-11T10:16:56;119.87;;;46.87;;
5678;SDS011;2862;52.560;13.566;2023-02-11T10:27:07;109.17;;;43.27;;
5678;SDS011;2862;52.560;13.566;2023-02-11T10:37:19;118.57;;;45.33;;
5678;SDS011;2862;52.560;13.566;2023-02-11T10:47:23;116.33;;;40.97;;
5678;SDS011;2862;52.560;13.566;2023-02-11T10:57:32;122.47;;;44.97;;
5678;SDS011;2862;52.560;13.566;2023-02-11T11:07:36;117.90;;;45.23;;
5678;SDS011;2862;52.560;13.566;2023-02-11T11:17:41;121.97;;;44.20;;
5678;SDS011;2862;52.560;13.566;2023-02-11T11:27:46;104.07;;;40.93;;
5678;SDS011;2862;52.560;13.566;2023-02-11T11:37:53;106.63;;;38.03;;
5678;SDS011;2862;52.560;13.566;2023-02-11T11:48:02;95.60;;;33.77;;
5678;SDS011;2862;52.560;13.566;2023-02-11T11:58:16;104.73;;;34.03;;
5678;SDS011;2862;52.560;13.566;2023-02-11T12:08:22;92.07;;;31.53;;
5678;SDS011;2862;52.560;13.566;2023-02-11T12:18:38;81.67;;;31.27;;
5678;SDS011;2862;52.560;13.566;2023-02-11T12:29:07;67.77;;;28.37;;
5678;SDS011;2862;52.560;13.566;2023-02-11T12:39:21;68.80;;;28.20;;
5678;SDS011;2862;52.560;13.566;2023-02-11T12:49:35;67.03;;;25.57;;
5678;SDS011;2862;52.560;13.566;2023-02-11T12:59:56;58.97;;;23.53;;
5678;SDS011;2862;52.560;13.566;2023-02-11T13:10:22;68.40;;;25.23;;
5678;SDS011;2862;52.560;13.566;2023-02-11T13:20:34;65.97;;;24.13;;
5678;SDS011;2862;52.560;13.566;2023-02-11T13:30:43;65.40;;;22.70;;
5678;SDS011;2862;52.560;13.566;2023-02-11T13:41:02;60.70;;;21.03;;
5678;SDS011;2862;52.560;13.566;2023-02-11T14:14:11;58.23;;;21.63;;
5678;SDS011;2862;52.560;13.566;2023-02-11T14:34:50;54.87;;;21.03;;
5678;SDS011;2862;52.560;13.566;2023-02-11T14:45:02;55.43;;;19.57;;
5678;SDS011;2862;52.560;13.566;2023-02-11T14:55:13;44.17;;;18.17;;
5678;SDS011;2862;52.560;13.566;2023-02-11T15:05:26;47.10;;;17.83;;
5678;SDS011;2862;52.560;13.566;2023-02-11T15:15:31;48.00;;;18.10;;
5678;SDS011;2862;52.560;13.566;2023-02-11T15:25:41;41.17;;;14.90;;
5678;SDS011;2862;52.560;13.566;2023-02-11T15:35:47;36.43;;;14.20;;
5678;SDS011;2862;52.560;13.566;2023-02-11T15:45:53;36.80;;;14.50;;
5678;SDS011;2862;52.560;13.566;2023-02-11T15:56:03;45.93;;;14.07;;
5678;SDS011;2862;52.560;13.566;2023-02-11T16:06:14;40.03;;;12.90;;
5678;SDS011;2862;52.560;13.566;2023-02-11T16:16:19;37.50;;;12.03;;
5678;SDS011;2862;52.560;13.566;2023-02-11T16:26:26;31.43;;;10.50;;
5678;SDS011;2862;52.560;13.566;2023-02-11T16:36:37;33.67;;;11.57;;
5678;SDS011;2862;52.560;13.566;2023-02-11T16:46:40;36.27;;;11.60;;
5678;SDS011;2862;52.560;13.566;2023-02-11T16:56:44;31.40;;;10.10;;
5678;SDS011;2862;52.560;13.566;2023-02-11T17:06:47;27.57;;;9.40;;
5678;SDS011;2862;52.560;13.566;2023-02-11T17:16:51;28.03;;;9.70;;
5678;SDS011;2862;52.560;13.566;2023-02-11T17:26:54;31.87;;;10.37;;
5678;SDS011;2862;52.560;13.566;2023-02-11T17:36:58;28.60;;;7.50;;
5678;SDS011;2862;52.560;13.566;2023-02-11T17:47:03;26.30;;;8.77;;
5678;SDS011;2862;52.560;13.566;2023-02-11T17:57:08;26.27;;;9.80;;
5678;SDS011;2862;52.560;13.566;2023-02-11T18:07:11;25.60;;;9.00;;
5678;SDS011;2862;52.560;13.566;2023-02-11T18:17:16;25.97;;;8.37;;
5678;SDS011;2862;52.560;13.566;2023-02-11T18:27:22;43.80;;;22.10;;
5678;SDS011;2862;52.560;13.566;2023-02-11T18:37:27;26.13;;;8.70;;
5678;SDS011;2862;52.560;13.566;2023-02-11T18:47:30;27.67;;;8.80;;
5678;SDS011;2862;52.560;13.566;2023-02-11T18:57:34;28.07;;;8.37;;
5678;SDS011;2862;52.560;13.566;2023-02-11T19:07:37;24.23;;;7.60;;
5678;SDS011;2862;52.560;13.566;2023-02-11T19:17:41;25.37;;;7.20;;
5678;SDS011;2862;52.560;13.566;2023-02-11T19:27:45;27.60;;;7.80;;
5678;SDS011;2862;52.560;13.566;2023-02-11T19:37:49;25.40;;;7.40;;
5678;SDS011;2862;52.560;13.566;2023-02-11T19:47:55;27.57;;;8.23;;
5678;SDS011;2862;52.560;13.566;2023-02-11T19:58:01;28.23;;;8.10;;
5678;SDS011;2862;52.560;13.566;2023-02-11T20:08:04;24.80;;;8.90;;
5678;SDS011;2862;52.560;13.566;2023-02-11T20:18:08;29.67;;;9.10;;
5678;SDS011;2862;52.560;13.566;2023-02-11T20:28:10;30.93;;;9.73;;
5678;SDS011;2862;52.560;13.566;2023-02-11T20:38:14;31.30;;;10.30;;
5678;SDS011;2862;52.560;13.566;2023-02-11T20:48:17;31.70;;;10.47;;
5678;SDS011;2862;52.560;13.566;2023-02-11T20:58:21;30.10;;;9.87;;
5678;SDS011;2862;52.560;13.566;2023-02-11T21:08:24;28.80;;;8.87;;
5678;SDS011;2862;52.560;13.566;2023-02-11T21:18:29;32.43;;;10.30;;
5678;SDS011;2862;52.560;13.566;2023-02-11T21:28:33;28.37;;;9.30;;
5678;SDS011;2862;52.560;13.566;2023-02-11T21:38:40;32.40;;;7.50;;
5678;SDS011;2862;52.560;13.566;2023-02-11T21:48:43;32.70;;;8.20;;
5678;SDS011;2862;52.560;13.566;2023-02-11T21:58:50;39.00;;;7.17;;
5678;SDS011;2862;52.560;13.566;2023-02-11T22:08:54;32.17;;;6.87;;
5678;SDS011;2862;52.560;13.566;2023-02-11T22:18:59;34.33;;;6.63;;
5678;SDS011;2862;52.560;13.566;2023-02-11T22:29:03;46.57;;;6.33;;
5678;SDS011;2862;52.560;13.566;2023-02-11T22:39:21;32.97;;;5.40;;
5678;SDS011;2862;52.560;13.566;2023-02-11T22:49:24;31.50;;;5.27;;
5678;SDS011;2862;52.560;13.566;2023-02-11T22:59:29;27.47;;;5.17;;
5678;SDS011;2862;52.560;13.566;2023-02-11T23:14:50;38.83;;;5.77;;
5678;SDS011;2862;52.560;13.566;2023-02-11T23:24:53;36.27;;;5.90;;
5678;SDS011;2862;52.560;13.566;2023-02-11T23:34:57;36.80;;;4.80;;
5678;SDS011;2862;52.560;13.566;2023-02-11T23:45:01;33.53;;;5.17;;
5678;SDS011;2862;52.560;13.566;2023-02-11T23:55:05;41.13;;;6.27;;
